Time;durP1;ratioP1;P1;durP2;ratioP2;P2;SDS_P1;SDS_P2;PMS_P1;PMS_P2;Temp;Humidity;BMP_temperature;BMP_pressure;BME280_temperature;BME280_humidity;BME280_pressure;Samples;Min_cycle;Max_cycle;Signal;HPM_P1;HPM_P2
2023/01/13 00:01:08;;;;;;;5.88;3.60;;;7.30;99.90;;;;;;6271727;22;20000;-75
2023/01/13 00:03:34;;;;;;;6.25;2.90;;;7.30;99.90;;;;;;6271153;22;20004;-74
2023/01/13 00:06:00;;;;;;;1.90;1.80;;;7.30;99.90;;;;;;6243541;22;20008;-75
2023/01/13 00:08:26;;;;;;;2.05;1.88;;;7.20;99.90;;;;;;6270830;22;20000;-75
2023/01/13 00:10:52;;;;;;;2.35;2.15;;;7.30;99.90;;;;;;6272508;22;20025;-74
2023/01/13 00:13:25;;;;;;;2.38;2.17;;;7.30;99.90;;;;;;6271288;22;20425;-73
2023/01/13 00:15:58;;;;;;;2.28;2.08;;;7.30;99.90;;;;;;6248296;22;20015;-73
2023/01/13 00:18:24;;;;;;;4.63;3.80;;;7.40;99.90;;;;;;6275957;22;20053;-74
2023/01/13 00:21:18;;;;;;;8.52;6.18;;;7.30;99.90;;;;;;6276024;22;19992;-73
2023/01/13 00:23:44;;;;;;;11.55;7.38;;;7.30;99.90;;;;;;6270078;22;20010;-73
2023/01/13 00:26:17;;;;;;;15.27;8.57;;;7.20;99.90;;;;;;6275786;22;20554;-74
2023/01/13 00:28:42;;;;;;;13.98;9.25;;;7.10;99.90;;;;;;6276095;22;20007;-74
2023/01/13 00:31:10;;;;;;;17.98;10.57;;;7.10;99.90;;;;;;6276533;22;20000;-75
2023/01/13 00:33:37;;;;;;;20.33;10.82;;;6.90;99.90;;;;;;6276390;22;19996;-74
2023/01/13 00:36:04;;;;;;;15.05;10.18;;;6.80;99.90;;;;;;6276309;22;20004;-75
2023/01/13 00:38:31;;;;;;;13.52;10.90;;;6.80;99.90;;;;;;6276370;22;20022;-75
2023/01/13 00:41:08;;;;;;;14.93;10.85;;;6.70;99.90;;;;;;6276573;22;19996;-75
2023/01/13 00:43:36;;;;;;;17.75;10.32;;;6.70;99.90;;;;;;6248871;22;20003;-75
2023/01/13 00:46:03;;;;;;;21.10;11.30;;;6.70;99.90;;;;;;6276565;22;20014;-75
2023/01/13 00:48:29;;;;;;;22.23;12.75;;;6.70;99.90;;;;;;6276601;22;20402;-75
2023/01/13 00:50:57;;;;;;;21.83;12.73;;;6.70;99.90;;;;;;6275100;22;20027;-75
2023/01/13 00:53:23;;;;;;;20.77;12.50;;;6.80;99.90;;;;;;6244974;22;20019;-75
2023/01/13 00:55:49;;;;;;;18.27;11.38;;;6.80;99.90;;;;;;6272339;22;20078;-75
2023/01/13 00:58:15;;;;;;;17.52;12.02;;;6.70;99.90;;;;;;6272509;22;20019;-75
2023/01/13 01:00:41;;;;;;;10.65;7.97;;;6.70;99.90;;;;;;6272165;22;20049;-75
2023/01/13 01:03:11;;;;;;;7.32;4.90;;;6.70;99.90;;;;;;6245157;22;20424;-75
2023/01/13 01:05:39;;;;;;;4.90;4.07;;;6.80;99.90;;;;;;6272286;22;20085;-75
2023/01/13 01:08:05;;;;;;;4.43;3.85;;;6.80;99.90;;;;;;6272769;22;20000;-75
2023/01/13 01:10:31;;;;;;;4.32;3.13;;;6.80;99.90;;;;;;6274623;22;20007;-75
2023/01/13 01:12:56;;;;;;;3.78;3.13;;;6.80;99.90;;;;;;6247477;22;19999;-75
2023/01/13 01:15:22;;;;;;;3.15;2.95;;;6.70;99.90;;;;;;6274448;22;20007;-75
2023/01/13 01:17:48;;;;;;;3.35;2.97;;;6.70;99.90;;;;;;6247437;22;20028;-75
2023/01/13 01:20:14;;;;;;;3.15;2.80;;;6.70;99.90;;;;;;6274537;22;20058;-75
2023/01/13 01:22:39;;;;;;;2.30;2.13;;;6.70;99.90;;;;;;6274351;22;20323;-75
2023/01/13 01:25:05;;;;;;;3.53;2.60;;;6.80;99.90;;;;;;6247231;22;20003;-75
2023/01/13 01:27:31;;;;;;;3.20;2.67;;;6.80;99.90;;;;;;6247412;22;20395;-75
2023/01/13 01:29:57;;;;;;;3.38;2.70;;;6.80;99.90;;;;;;6274375;22;20007;-75
2023/01/13 01:32:22;;;;;;;3.47;2.85;;;6.80;99.90;;;;;;6274327;22;20007;-75
2023/01/13 01:34:50;;;;;;;6.00;3.88;;;6.80;99.90;;;;;;6274343;22;20424;-75
2023/01/13 01:37:15;;;;;;;4.00;2.60;;;6.80;99.90;;;;;;6274245;22;20032;-75
2023/01/13 01:39:41;;;;;;;4.10;3.25;;;6.80;99.90;;;;;;6247274;22;20000;-75
2023/01/13 01:45:02;;;;;;;3.42;3.13;;;6.70;99.90;;;;;;6274187;22;20110;-75
2023/01/13 01:47:29;;;;;;;3.85;3.55;;;6.70;99.90;;;;;;6247180;22;20263;-75
2023/01/13 01:49:57;;;;;;;5.15;4.00;;;6.60;99.90;;;;;;6247388;22;20008;-75
2023/01/13 01:52:25;;;;;;;4.45;4.00;;;6.60;99.90;;;;;;6274240;22;20073;-75
2023/01/13 01:54:55;;;;;;;3.63;3.33;;;6.60;99.90;;;;;;6273984;22;20000;-75
2023/01/13 01:57:41;;;;;;;4.63;3.47;;;6.60;99.90;;;;;;6274394;22;20331;-75
2023/01/13 02:00:08;;;;;;;4.85;3.72;;;6.60;99.90;;;;;;6274300;22;19996;-75
2023/01/13 02:02:34;;;;;;;5.00;4.50;;;6.50;99.90;;;;;;6247175;22;20014;-75
2023/01/13 02:05:00;;;;;;;5.70;4.85;;;6.50;99.90;;;;;;6274149;22;20372;-75
2023/01/13 02:07:30;;;;;;;7.38;5.40;;;6.40;99.90;;;;;;6273843;22;20004;-75
2023/01/13 02:09:58;;;;;;;7.72;5.28;;;6.40;99.90;;;;;;6274268;22;20003;-75
2023/01/13 02:12:28;;;;;;;6.63;5.30;;;6.30;99.90;;;;;;6248413;22;20008;-75
2023/01/13 02:14:56;;;;;;;8.55;6.43;;;6.20;99.90;;;;;;6275910;22;20352;-75
2023/01/13 02:17:24;;;;;;;10.63;7.05;;;6.20;99.90;;;;;;6249169;22;20379;-75
2023/01/13 02:20:05;;;;;;;7.85;6.80;;;6.20;99.90;;;;;;6276305;22;20004;-75
2023/01/13 02:23:02;;;;;;;12.98;8.80;;;6.20;99.90;;;;;;6276065;22;20431;-76
2023/01/13 02:25:47;;;;;;;10.57;6.97;;;6.10;99.90;;;;;;6276222;22;20079;-75
2023/01/13 02:28:21;;;;;;;12.90;7.85;;;6.10;99.90;;;;;;6249095;22;20008;-75
2023/01/13 02:34:06;;;;;;;11.30;8.25;;;6.10;99.90;;;;;;6275974;22;20501;-75
2023/01/13 02:36:52;;;;;;;11.98;7.55;;;6.00;99.90;;;;;;6248784;22;20091;-75
2023/01/13 02:39:54;;;;;;;12.15;7.55;;;6.00;99.90;;;;;;6248661;22;19999;-75
2023/01/13 02:45:35;;;;;;;13.30;9.15;;;5.90;99.90;;;;;;6275700;22;20446;-75
2023/01/13 02:48:05;;;;;;;15.00;9.48;;;6.00;99.90;;;;;;6275944;22;20054;-75
2023/01/13 02:50:40;;;;;;;14.45;8.88;;;5.90;99.90;;;;;;6275969;22;20031;-75
2023/01/13 02:53:33;;;;;;;14.80;9.32;;;5.80;99.90;;;;;;6275613;22;20003;-75
2023/01/13 02:56:02;;;;;;;10.93;8.30;;;5.60;99.90;;;;;;6248642;22;20336;-75
2023/01/13 02:58:29;;;;;;;13.05;9.48;;;5.50;99.90;;;;;;6275710;22;19996;-75
2023/01/13 03:00:55;;;;;;;11.20;7.55;;;5.50;99.90;;;;;;6248697;22;20278;-75
2023/01/13 03:03:21;;;;;;;11.57;7.18;;;5.60;99.90;;;;;;6275910;22;20079;-75
2023/01/13 03:05:50;;;;;;;8.23;6.07;;;5.70;99.90;;;;;;6275792;22;20004;-75
2023/01/13 03:08:38;;;;;;;5.72;5.22;;;5.80;99.90;;;;;;6275639;22;20003;-75
2023/01/13 03:11:10;;;;;;;5.43;4.93;;;5.80;99.90;;;;;;6248500;22;20428;-75
2023/01/13 03:13:50;;;;;;;6.78;5.78;;;5.90;99.90;;;;;;6248477;22;20007;-75
2023/01/13 03:16:49;;;;;;;8.25;6.68;;;5.80;99.90;;;;;;6275746;22;20003;-75
2023/01/13 03:19:34;;;;;;;8.70;6.68;;;5.80;99.90;;;;;;6275620;22;20027;-75
2023/01/13 03:22:05;;;;;;;10.07;6.88;;;5.80;99.90;;;;;;6275595;22;20443;-75
2023/01/13 03:24:31;;;;;;;11.52;7.05;;;5.80;99.90;;;;;;6275129;22;20004;-75
2023/01/13 03:27:20;;;;;;;9.15;6.82;;;5.80;99.90;;;;;;6275676;22;20085;-75
2023/01/13 03:29:57;;;;;;;7.85;6.30;;;5.70;99.90;;;;;;6275358;22;20122;-75
2023/01/13 03:32:31;;;;;;;7.88;5.95;;;5.60;99.90;;;;;;6275732;22;20438;-75
2023/01/13 03:35:10;;;;;;;7.72;6.32;;;5.50;99.90;;;;;;6275200;22;20007;-75
2023/01/13 03:37:40;;;;;;;7.30;6.03;;;5.40;99.90;;;;;;6248180;22;20003;-75
2023/01/13 03:40:21;;;;;;;6.80;5.53;;;5.40;99.90;;;;;;6275538;22;20416;-75
2023/01/13 03:45:40;;;;;;;4.50;4.10;;;5.40;99.90;;;;;;6275370;22;20534;-75
2023/01/13 03:48:14;;;;;;;3.83;3.38;;;5.50;99.90;;;;;;6248241;22;20008;-75
2023/01/13 03:51:06;;;;;;;3.83;3.53;;;5.60;99.90;;;;;;6248179;22;20003;-76
2023/01/13 03:53:47;;;;;;;3.25;3.00;;;5.60;99.90;;;;;;6268601;22;20336;-75
2023/01/13 03:56:22;;;;;;;4.22;3.08;;;5.70;99.90;;;;;;6248195;22;20012;-75
2023/01/13 03:58:51;;;;;;;4.28;3.05;;;5.80;99.90;;;;;;6275091;22;20010;-75
2023/01/13 04:01:26;;;;;;;3.00;2.70;;;5.80;99.90;;;;;;6275235;22;20006;-75
2023/01/13 04:04:05;;;;;;;3.40;3.10;;;5.90;99.90;;;;;;6275306;22;20541;-75
2023/01/13 04:06:54;;;;;;;3.45;3.15;;;5.90;99.90;;;;;;6248192;22;20334;-75
2023/01/13 04:09:41;;;;;;;3.50;3.20;;;5.90;99.90;;;;;;6247813;22;20000;-75
2023/01/13 04:12:23;;;;;;;5.57;3.10;;;5.90;99.90;;;;;;6275219;22;19999;-75
2023/01/13 04:14:49;;;;;;;3.40;3.10;;;5.90;99.90;;;;;;6274957;22;20007;-75
2023/01/13 04:17:15;;;;;;;4.18;2.97;;;6.00;99.90;;;;;;6248069;22;20371;-75
2023/01/13 04:19:41;;;;;;;3.15;2.45;;;6.10;99.90;;;;;;6275018;22;19996;-75
2023/01/13 04:22:07;;;;;;;2.85;2.65;;;6.10;99.90;;;;;;6248026;22;20079;-75
2023/01/13 04:24:36;;;;;;;2.90;2.65;;;6.10;99.90;;;;;;6247613;22;20011;-75
2023/01/13 04:27:05;;;;;;;2.70;2.40;;;6.10;99.90;;;;;;6247948;22;20511;-75
2023/01/13 04:29:30;;;;;;;2.72;2.30;;;6.20;99.90;;;;;;6275101;22;20007;-75
2023/01/13 04:31:56;;;;;;;2.60;2.40;;;6.20;99.90;;;;;;6247958;22;20387;-75
2023/01/13 04:34:22;;;;;;;3.75;2.53;;;6.20;99.90;;;;;;6247257;22;20012;-75
2023/01/13 04:36:47;;;;;;;4.38;2.50;;;6.30;99.90;;;;;;6247612;22;20057;-75
2023/01/13 04:39:13;;;;;;;2.55;2.35;;;6.30;99.90;;;;;;6274825;22;19996;-75
2023/01/13 04:41:57;;;;;;;2.60;2.40;;;6.30;99.90;;;;;;6274998;22;20004;-75
2023/01/13 04:44:22;;;;;;;3.15;2.22;;;6.40;99.90;;;;;;6274624;22;20379;-75
2023/01/13 04:46:48;;;;;;;3.13;2.72;;;6.30;99.90;;;;;;6247429;22;19999;-76
2023/01/13 04:49:14;;;;;;;3.20;2.90;;;6.30;99.90;;;;;;6247685;22;20023;-75
2023/01/13 04:51:39;;;;;;;2.47;2.28;;;6.30;99.90;;;;;;6274820;22;19996;-75
2023/01/13 04:54:05;;;;;;;3.03;2.72;;;6.30;99.90;;;;;;6247355;22;20004;-75
2023/01/13 04:56:31;;;;;;;2.70;2.50;;;6.30;99.90;;;;;;6274651;22;20455;-75
2023/01/13 04:58:56;;;;;;;2.53;2.33;;;6.30;99.90;;;;;;6274765;22;20485;-75
2023/01/13 05:01:25;;;;;;;3.00;2.50;;;6.30;99.90;;;;;;6274737;22;20469;-75
2023/01/13 05:03:51;;;;;;;2.80;2.55;;;6.30;99.90;;;;;;6274604;22;19999;-75
2023/01/13 05:06:17;;;;;;;2.90;2.65;;;6.30;99.90;;;;;;6274518;22;20446;-75
2023/01/13 05:08:42;;;;;;;3.38;2.38;;;6.30;99.90;;;;;;6247325;22;20008;-76
2023/01/13 05:19:20;;;;;;;2.97;2.40;;;6.30;99.90;;;;;;6274702;22;20034;-75
2023/01/13 05:27:14;;;;;;;3.65;2.60;;;6.40;99.90;;;;;;6274623;22;20391;-75
2023/01/13 05:29:40;;;;;;;3.53;2.85;;;6.40;99.90;;;;;;6274565;22;20007;-75
2023/01/13 05:32:07;;;;;;;5.45;3.30;;;6.40;99.90;;;;;;6247377;22;20094;-75
2023/01/13 05:34:33;;;;;;;5.78;2.92;;;6.40;99.90;;;;;;6246638;22;20014;-75
2023/01/13 05:36:58;;;;;;;3.28;3.03;;;6.40;99.90;;;;;;6274622;22;20339;-75
2023/01/13 05:39:25;;;;;;;4.65;3.28;;;6.50;99.90;;;;;;6274388;22;19992;-75
2023/01/13 05:44:35;;;;;;;3.10;2.80;;;6.60;99.90;;;;;;6274295;22;20089;-75
2023/01/13 05:47:00;;;;;;;5.15;3.08;;;6.60;99.90;;;;;;6247294;22;20003;-75
2023/01/13 05:49:26;;;;;;;4.55;2.60;;;6.50;99.90;;;;;;6274346;22;20320;-75
2023/01/13 05:51:51;;;;;;;3.17;2.90;;;6.50;99.90;;;;;;6247314;22;20053;-75
2023/01/13 05:54:17;;;;;;;3.72;2.80;;;6.40;99.90;;;;;;6246984;22;20003;-75
2023/01/13 05:56:43;;;;;;;2.40;2.20;;;6.40;99.90;;;;;;6274414;22;20439;-75
2023/01/13 05:59:08;;;;;;;5.00;3.45;;;6.30;99.90;;;;;;6274092;22;20019;-75
2023/01/13 06:01:35;;;;;;;7.90;3.55;;;6.30;99.90;;;;;;6274447;22;20068;-75
2023/01/13 06:04:01;;;;;;;5.45;3.63;;;6.40;99.90;;;;;;6274257;22;20001;-75
2023/01/13 06:06:27;;;;;;;5.60;3.60;;;6.40;99.90;;;;;;6247221;22;20082;-75
2023/01/13 06:08:52;;;;;;;7.38;4.28;;;6.40;99.90;;;;;;6274199;22;20082;-75
2023/01/13 06:11:18;;;;;;;4.15;3.50;;;6.40;99.90;;;;;;6274313;22;19999;-75
2023/01/13 06:13:44;;;;;;;4.97;3.60;;;6.40;99.90;;;;;;6247187;22;20030;-75
2023/01/13 06:16:09;;;;;;;4.65;3.58;;;6.40;99.90;;;;;;6274288;22;20088;-75
2023/01/13 06:18:35;;;;;;;8.25;3.92;;;6.40;99.90;;;;;;6272988;22;20087;-75
2023/01/13 06:21:01;;;;;;;4.28;3.90;;;6.40;99.90;;;;;;6271946;22;19996;-75
2023/01/13 06:23:27;;;;;;;5.93;4.50;;;6.40;99.90;;;;;;6271793;22;19999;-75
2023/01/13 06:26:07;;;;;;;10.52;6.15;;;6.40;99.90;;;;;;6271946;22;20003;-75
2023/01/13 06:28:33;;;;;;;10.82;6.50;;;6.40;99.90;;;;;;6272002;22;20008;-75
2023/01/13 06:31:03;;;;;;;12.10;6.47;;;6.40;99.90;;;;;;6271759;22;20004;-75
2023/01/13 06:33:32;;;;;;;12.48;7.30;;;6.40;99.90;;;;;;6272379;22;20000;-75
2023/01/13 06:36:03;;;;;;;6.43;5.47;;;6.40;99.90;;;;;;6273895;22;20000;-75
2023/01/13 06:38:32;;;;;;;6.90;4.45;;;6.40;99.90;;;;;;6274092;22;19996;-75
2023/01/13 06:40:58;;;;;;;5.35;3.90;;;6.40;99.90;;;;;;6274330;22;19996;-75
2023/01/13 06:43:23;;;;;;;8.20;3.90;;;6.40;99.90;;;;;;6273918;22;20010;-75
2023/01/13 06:45:54;;;;;;;4.30;3.90;;;6.40;99.90;;;;;;6246623;22;20097;-75
2023/01/13 06:48:27;;;;;;;7.67;4.20;;;6.40;99.90;;;;;;6247122;22;20454;-75
2023/01/13 06:50:53;;;;;;;6.30;3.80;;;6.40;99.90;;;;;;6274209;22;20004;-75
2023/01/13 06:53:22;;;;;;;7.25;3.80;;;6.40;99.90;;;;;;6273907;22;20046;-75
2023/01/13 06:55:48;;;;;;;5.95;4.10;;;6.40;99.90;;;;;;6273863;22;20396;-75
2023/01/13 06:58:13;;;;;;;5.18;3.95;;;6.40;99.90;;;;;;6247278;22;20003;-75
2023/01/13 07:00:39;;;;;;;8.80;4.55;;;6.40;99.90;;;;;;6275912;22;19996;-75
2023/01/13 07:03:13;;;;;;;6.25;4.93;;;6.40;99.90;;;;;;6275852;22;19996;-75
2023/01/13 07:05:40;;;;;;;6.50;5.05;;;6.40;99.90;;;;;;6275701;22;20000;-75
2023/01/13 07:08:06;;;;;;;7.78;4.80;;;6.40;99.90;;;;;;6275129;22;20023;-75
2023/01/13 07:10:32;;;;;;;6.80;4.30;;;6.40;99.90;;;;;;6277273;22;20006;-75
2023/01/13 07:16:01;;;;;;;5.45;3.83;;;6.50;99.90;;;;;;6277226;22;20437;-75
2023/01/13 07:18:30;;;;;;;7.45;4.45;;;6.50;99.90;;;;;;6250147;22;20000;-75
2023/01/13 07:21:00;;;;;;;8.05;4.32;;;6.50;99.90;;;;;;6250169;22;20031;-75
2023/01/13 07:23:28;;;;;;;13.77;4.75;;;6.50;99.90;;;;;;6250162;22;20034;-75
2023/01/13 07:25:55;;;;;;;6.70;4.18;;;6.50;99.90;;;;;;6277283;22;20034;-75
2023/01/13 07:28:22;;;;;;;6.97;4.53;;;6.50;99.90;;;;;;6250125;22;20054;-75
2023/01/13 07:30:47;;;;;;;6.18;4.43;;;6.50;99.90;;;;;;6250327;22;20038;-75
2023/01/13 07:33:13;;;;;;;4.97;4.03;;;6.50;99.90;;;;;;6250066;22;20335;-76
2023/01/13 07:35:39;;;;;;;14.32;5.55;;;6.50;99.90;;;;;;6249664;22;20378;-75
2023/01/13 07:38:05;;;;;;;8.10;4.75;;;6.50;99.90;;;;;;6277082;22;20026;-75
2023/01/13 07:40:30;;;;;;;8.93;5.05;;;6.50;99.90;;;;;;6249994;22;20000;-75
2023/01/13 07:45:40;;;;;;;10.55;5.47;;;6.60;99.90;;;;;;6276736;22;20038;-75
2023/01/13 07:48:06;;;;;;;7.75;5.40;;;6.60;99.90;;;;;;6276301;22;20004;-75
2023/01/13 07:50:31;;;;;;;6.95;4.72;;;6.70;99.90;;;;;;6276858;22;20004;-75
2023/01/13 07:52:58;;;;;;;10.85;5.28;;;6.70;99.90;;;;;;6276444;22;20064;-75
2023/01/13 07:55:23;;;;;;;8.18;4.88;;;6.70;99.90;;;;;;6276427;22;20010;-75
2023/01/13 07:57:49;;;;;;;6.80;4.75;;;6.70;99.90;;;;;;6276549;22;20095;-75
2023/01/13 08:00:15;;;;;;;10.75;5.20;;;6.70;99.90;;;;;;6250061;22;20000;-75
2023/01/13 08:02:43;;;;;;;6.15;4.85;;;6.70;99.90;;;;;;6249774;22;19996;-75
2023/01/13 08:05:09;;;;;;;6.88;5.18;;;6.80;99.90;;;;;;6276088;22;20003;-75
2023/01/13 08:07:35;;;;;;;9.48;4.95;;;6.80;99.90;;;;;;6248797;22;20382;-75
2023/01/13 08:10:02;;;;;;;6.65;4.47;;;6.80;99.90;;;;;;6248387;22;20027;-75
2023/01/13 08:15:15;;;;;;;5.25;4.75;;;6.80;99.90;;;;;;6275746;22;20018;-75
2023/01/13 08:17:40;;;;;;;5.50;4.72;;;6.90;99.90;;;;;;6276001;22;19996;-75
2023/01/13 08:20:07;;;;;;;8.85;4.28;;;6.90;99.90;;;;;;6248679;22;20000;-75
2023/01/13 08:22:33;;;;;;;10.32;5.45;;;6.90;99.90;;;;;;6244891;22;20038;-75
2023/01/13 08:24:59;;;;;;;6.65;4.85;;;7.00;99.90;;;;;;6271221;22;20003;-75
2023/01/13 08:27:24;;;;;;;7.30;4.22;;;7.00;99.90;;;;;;6270609;22;20003;-75
2023/01/13 08:29:50;;;;;;;8.77;4.78;;;7.10;99.90;;;;;;6244894;22;20014;-75
2023/01/13 08:32:16;;;;;;;6.65;5.95;;;7.10;99.90;;;;;;6273467;22;19999;-81
2023/01/13 08:34:41;;;;;;;11.27;6.60;;;7.10;99.90;;;;;;6245931;22;20527;-82
2023/01/13 08:37:07;;;;;;;10.98;6.40;;;7.10;99.90;;;;;;6272842;22;20039;-82
2023/01/13 08:39:34;;;;;;;9.05;5.55;;;7.10;99.90;;;;;;6272118;22;19996;-82
2023/01/13 08:42:01;;;;;;;5.60;5.00;;;7.10;99.90;;;;;;6273935;22;20023;-82
2023/01/13 08:44:28;;;;;;;11.73;4.80;;;7.10;99.90;;;;;;6273557;22;20061;-82
2023/01/13 08:46:55;;;;;;;7.40;5.35;;;7.20;99.90;;;;;;6273720;22;20534;-82
2023/01/13 08:49:22;;;;;;;7.88;4.47;;;7.20;99.90;;;;;;6274730;22;20020;-82
2023/01/13 08:51:49;;;;;;;7.05;5.05;;;7.30;99.90;;;;;;6274141;22;20027;-82
2023/01/13 08:54:15;;;;;;;7.75;4.97;;;7.30;99.90;;;;;;6274174;22;20003;-82
2023/01/13 08:56:41;;;;;;;7.05;4.68;;;7.30;99.90;;;;;;6246196;22;20033;-81
2023/01/13 08:59:18;;;;;;;6.10;4.50;;;7.40;99.90;;;;;;6275855;22;20495;-80
2023/01/13 09:01:44;;;;;;;10.35;6.10;;;7.40;99.90;;;;;;6249361;22;20083;-79
2023/01/13 09:04:22;;;;;;;11.38;6.68;;;7.40;99.90;;;;;;6276221;22;20006;-74
2023/01/13 09:06:48;;;;;;;8.10;5.60;;;7.50;99.90;;;;;;6276395;22;20004;-74
2023/01/13 09:09:14;;;;;;;7.75;5.15;;;7.60;99.90;;;;;;6275666;22;20423;-74
2023/01/13 09:14:30;;;;;;;8.40;6.05;;;7.60;99.90;;;;;;6274557;22;20019;-74
2023/01/13 09:16:56;;;;;;;9.57;5.95;;;7.70;99.90;;;;;;6274736;22;20006;-74
2023/01/13 09:19:21;;;;;;;10.88;6.35;;;7.70;99.90;;;;;;6274526;22;20026;-74
2023/01/13 09:21:47;;;;;;;10.52;6.38;;;7.80;99.90;;;;;;6274137;22;20434;-74
2023/01/13 09:24:13;;;;;;;17.17;6.18;;;7.80;99.90;;;;;;6274450;22;20023;-74
2023/01/13 09:26:39;;;;;;;11.30;6.65;;;7.80;99.90;;;;;;6273094;22;20064;-74
2023/01/13 09:29:04;;;;;;;8.98;6.35;;;7.90;99.90;;;;;;6271927;22;20087;-74
2023/01/13 09:31:33;;;;;;;7.93;6.28;;;7.90;99.90;;;;;;6272307;22;19999;-74
2023/01/13 09:36:48;;;;;;;14.73;6.75;;;8.00;99.90;;;;;;6272304;22;20402;-74
2023/01/13 09:39:13;;;;;;;10.38;6.82;;;8.00;99.90;;;;;;6272086;22;19996;-74
2023/01/13 09:45:27;;;;;;;8.80;6.35;;;8.10;99.90;;;;;;6274164;22;20577;-75
2023/01/13 09:48:01;;;;;;;11.88;7.53;;;8.10;99.90;;;;;;6190249;22;20450;-74
2023/01/13 09:50:45;;;;;;;13.05;7.63;;;8.10;99.90;;;;;;6247168;22;20312;-74
2023/01/13 09:53:31;;;;;;;12.35;7.85;;;8.10;99.90;;;;;;6273948;22;20436;-74
2023/01/13 09:55:57;;;;;;;12.10;7.75;;;8.20;99.90;;;;;;6274239;22;20332;-74
2023/01/13 09:58:23;;;;;;;13.23;8.02;;;8.20;99.90;;;;;;6274120;22;20002;-74
2023/01/13 10:00:59;;;;;;;12.73;7.50;;;8.20;99.90;;;;;;6274483;22;19996;-74
2023/01/13 10:03:28;;;;;;;12.93;6.93;;;8.30;99.90;;;;;;6274283;22;19999;-74
2023/01/13 10:06:14;;;;;;;10.00;7.40;;;8.30;99.90;;;;;;6274189;22;20443;-74
2023/01/13 10:08:45;;;;;;;13.45;7.22;;;8.30;99.90;;;;;;6274207;22;19999;-74
2023/01/13 10:14:10;;;;;;;15.48;9.57;;;8.40;99.90;;;;;;6274282;22;20069;-74
2023/01/13 10:16:41;;;;;;;17.67;9.70;;;8.40;99.90;;;;;;6247035;22;20052;-74
2023/01/13 10:19:21;;;;;;;23.48;12.02;;;8.40;99.90;;;;;;6274372;22;20034;-74
2023/01/13 10:22:02;;;;;;;24.02;11.95;;;8.40;99.90;;;;;;6274433;22;19995;-74
2023/01/13 10:24:33;;;;;;;22.63;13.07;;;8.40;99.90;;;;;;6273804;22;20074;-74
2023/01/13 10:27:31;;;;;;;26.85;14.07;;;8.40;99.90;;;;;;6246964;22;20468;-74
2023/01/13 10:29:57;;;;;;;26.85;13.20;;;8.50;99.90;;;;;;6244662;22;20027;-74
2023/01/13 10:32:22;;;;;;;26.80;14.18;;;8.50;99.90;;;;;;6274211;22;20331;-74
2023/01/13 10:34:50;;;;;;;24.05;14.23;;;8.50;99.90;;;;;;6275510;22;20232;-74
2023/01/13 10:37:21;;;;;;;32.22;15.73;;;8.50;99.90;;;;;;6249085;22;20004;-74
2023/01/13 10:39:48;;;;;;;34.28;21.33;;;8.50;99.90;;;;;;6276069;22;20070;-74
2023/01/13 10:42:21;;;;;;;32.13;20.40;;;8.50;99.90;;;;;;6275856;22;20332;-74
2023/01/13 10:44:50;;;;;;;33.63;19.27;;;8.40;99.90;;;;;;6275835;22;20015;-74
2023/01/13 10:47:28;;;;;;;34.45;18.45;;;8.40;99.90;;;;;;6276058;22;20011;-74
2023/01/13 10:50:21;;;;;;;31.88;19.10;;;8.40;99.90;;;;;;6249021;22;20010;-74
2023/01/13 10:52:57;;;;;;;;;;;8.50;99.90;;;;;;6249408;22;20007;-74
2023/01/13 10:55:29;;;;;;;28.55;17.95;;;8.50;99.90;;;;;;6248423;22;19945;-74
2023/01/13 10:57:55;;;;;;;31.17;18.33;;;8.50;99.90;;;;;;6276109;22;20082;-74
2023/01/13 11:00:32;;;;;;;32.50;18.17;;;8.60;99.90;;;;;;6276020;22;20003;-74
2023/01/13 11:03:23;;;;;;;34.42;18.10;;;8.60;99.90;;;;;;6275821;22;20377;-74
2023/01/13 11:05:54;;;;;;;36.80;18.98;;;8.60;99.90;;;;;;6275924;22;20007;-74
2023/01/13 11:08:24;;;;;;;32.53;19.15;;;8.60;99.90;;;;;;6275604;22;20007;-74
2023/01/13 11:10:57;;;;;;;31.00;18.48;;;8.70;99.90;;;;;;6275925;22;20027;-74
2023/01/13 11:13:27;;;;;;;33.80;18.80;;;8.70;99.90;;;;;;6248653;22;20004;-74
2023/01/13 11:16:15;;;;;;;29.17;18.10;;;8.80;99.90;;;;;;6275918;22;20004;-74
2023/01/13 11:19:01;;;;;;;30.45;18.15;;;8.80;99.90;;;;;;6275645;22;19996;-74
2023/01/13 11:21:55;;;;;;;28.92;18.25;;;8.80;99.90;;;;;;6275835;22;20078;-74
2023/01/13 11:24:45;;;;;;;31.20;18.10;;;8.80;99.90;;;;;;6261488;22;20000;-74
2023/01/13 11:27:20;;;;;;;29.90;19.77;;;8.90;99.90;;;;;;6252945;22;20089;-74
2023/01/13 11:30:13;;;;;;;29.30;17.80;;;8.80;99.90;;;;;;6248612;22;20200;-74
2023/01/13 11:33:10;;;;;;;29.35;18.50;;;8.90;99.90;;;;;;6275554;22;19999;-74
2023/01/13 11:35:53;;;;;;;31.60;20.75;;;8.90;99.90;;;;;;6248297;22;20090;-74
2023/01/13 11:38:32;;;;;;;32.35;21.20;;;8.90;99.90;;;;;;6275468;22;19999;-74
2023/01/13 11:41:27;;;;;;;28.15;19.52;;;8.90;99.90;;;;;;6275414;22;20032;-74
2023/01/13 11:44:03;;;;;;;34.35;19.50;;;8.90;99.90;;;;;;6227891;22;21400;-74
2023/01/13 11:46:31;;;;;;;26.77;18.17;;;8.90;99.90;;;;;;6274994;22;20014;-74
2023/01/13 11:48:58;;;;;;;36.30;18.20;;;8.90;99.90;;;;;;6275374;22;20011;-74
2023/01/13 11:52:08;;;;;;;28.02;18.35;;;8.90;99.90;;;;;;6248032;22;20008;-74
2023/01/13 11:54:48;;;;;;;26.30;17.88;;;9.00;99.90;;;;;;6248648;22;20083;-74
2023/01/13 11:57:45;;;;;;;28.67;17.73;;;9.00;99.90;;;;;;6275413;22;20083;-74
2023/01/13 12:00:26;;;;;;;26.48;16.83;;;9.00;99.90;;;;;;6275141;22;19995;-74
2023/01/13 12:03:19;;;;;;;26.55;17.10;;;9.00;99.90;;;;;;6275324;22;20054;-74
2023/01/13 12:06:10;;;;;;;28.27;18.35;;;9.00;99.90;;;;;;6275357;22;20498;-74
2023/01/13 12:08:56;;;;;;;31.40;19.52;;;9.00;99.90;;;;;;6254797;22;20008;-74
2023/01/13 12:15:15;;;;;;;30.92;17.60;;;9.00;99.90;;;;;;6261441;22;20053;-74
2023/01/13 12:17:41;;;;;;;27.83;16.77;;;9.00;99.90;;;;;;6275090;22;20045;-74
2023/01/13 12:20:33;;;;;;;26.42;18.05;;;8.90;99.90;;;;;;6275255;22;19995;-74
2023/01/13 12:23:03;;;;;;;27.92;19.48;;;8.90;99.90;;;;;;6275074;22;19999;-74
2023/01/13 12:25:29;;;;;;;30.67;17.63;;;9.00;99.90;;;;;;6247733;22;20266;-74
2023/01/13 12:28:10;;;;;;;25.02;16.73;;;9.00;99.90;;;;;;6248018;22;20008;-74
2023/01/13 12:30:49;;;;;;;27.40;16.20;;;9.00;99.90;;;;;;6276409;22;20008;-74
2023/01/13 12:33:24;;;;;;;31.15;18.00;;;9.00;99.90;;;;;;6276106;22;20004;-74
2023/01/13 12:36:21;;;;;;;23.80;16.60;;;9.00;99.90;;;;;;6276010;22;20007;-74
2023/01/13 12:38:57;;;;;;;23.60;16.20;;;9.00;99.90;;;;;;6274413;22;19999;-74
2023/01/13 12:44:33;;;;;;;29.27;17.45;;;9.00;99.90;;;;;;6276161;22;20398;-74
2023/01/13 13:05:11;;;;;;;29.98;14.43;;;9.20;99.90;;;;;;5023652;28;20113;-74
2023/01/13 13:07:44;;;;;;;21.25;14.10;;;9.30;99.90;;;;;;5024026;28;20034;-74
2023/01/13 13:10:13;;;;;;;24.85;15.20;;;9.30;99.90;;;;;;5023413;28;20071;-74
2023/01/13 13:15:32;;;;;;;21.02;14.48;;;9.10;99.90;;;;;;5024526;28;20252;-74
2023/01/13 13:18:01;;;;;;;22.13;16.00;;;9.10;99.90;;;;;;5025247;28;20089;-74
2023/01/13 13:20:54;;;;;;;23.55;15.45;;;9.00;99.90;;;;;;5025268;28;20484;-74
2023/01/13 13:23:37;;;;;;;21.77;12.93;;;9.00;99.90;;;;;;5024690;28;20043;-74
2023/01/13 13:26:18;;;;;;;23.10;13.05;;;8.90;99.90;;;;;;5025461;28;20025;-74
2023/01/13 13:28:51;;;;;;;22.00;12.95;;;8.90;99.90;;;;;;5024029;28;20034;-74
2023/01/13 13:31:32;;;;;;;16.90;12.65;;;8.90;99.90;;;;;;5022786;28;20034;-74
2023/01/13 13:34:33;;;;;;;18.92;12.32;;;8.90;99.90;;;;;;5023640;28;20022;-74
2023/01/13 13:37:19;;;;;;;16.60;12.73;;;8.90;99.90;;;;;;5071669;28;20026;-74
2023/01/13 13:48:26;;;;;;;20.20;12.32;;;8.70;99.90;;;;;;5024495;28;20087;-74
2023/01/13 13:51:02;;;;;;;19.77;12.85;;;8.70;99.90;;;;;;5023143;28;20029;-74
2023/01/13 13:53:41;;;;;;;20.75;13.30;;;8.70;99.90;;;;;;5023868;28;20025;-74
2023/01/13 13:56:20;;;;;;;17.55;13.50;;;8.70;99.90;;;;;;5023476;28;20033;-74
2023/01/13 13:58:47;;;;;;;18.55;13.57;;;8.60;99.90;;;;;;5024495;28;20113;-74
2023/01/13 14:01:30;;;;;;;18.52;12.80;;;8.60;99.90;;;;;;5024729;28;20473;-74
2023/01/13 14:04:10;;;;;;;20.35;13.10;;;8.60;99.90;;;;;;5020562;28;20054;-74
2023/01/13 14:06:35;;;;;;;21.27;13.95;;;8.60;99.90;;;;;;5011550;28;20026;-74
2023/01/13 14:09:03;;;;;;;20.15;12.68;;;8.50;99.90;;;;;;5011268;28;20408;-74
2023/01/13 14:11:31;;;;;;;19.05;12.95;;;8.50;99.90;;;;;;5011341;28;20024;-74
2023/01/13 14:14:05;;;;;;;23.38;13.60;;;8.50;99.90;;;;;;5010961;28;20037;-74
2023/01/13 14:16:32;;;;;;;15.10;12.68;;;8.50;99.90;;;;;;5011299;28;20022;-74
2023/01/13 14:18:58;;;;;;;27.02;13.40;;;8.50;99.90;;;;;;5010030;28;20030;-74
2023/01/13 14:21:29;;;;;;;35.85;15.13;;;8.50;99.90;;;;;;5011274;28;20071;-74
2023/01/13 14:23:59;;;;;;;29.25;16.88;;;8.50;99.90;;;;;;5010911;28;20018;-74
2023/01/13 14:26:30;;;;;;;33.72;17.08;;;8.50;99.90;;;;;;5011308;28;20030;-74
2023/01/13 14:28:58;;;;;;;23.00;15.98;;;8.50;99.90;;;;;;5009832;28;20377;-74
2023/01/13 14:31:24;;;;;;;18.58;12.63;;;8.50;99.90;;;;;;5011118;28;20106;-74
2023/01/13 14:33:53;;;;;;;16.48;13.05;;;8.50;99.90;;;;;;5010737;28;20033;-74
2023/01/13 14:36:37;;;;;;;18.30;12.65;;;8.50;99.90;;;;;;5011004;28;20022;-74
2023/01/13 14:39:03;;;;;;;18.73;12.75;;;8.50;99.90;;;;;;5010586;28;20049;-74